createdAt,value
2022-11-07T00:03:03.077Z,5.29
2022-11-07T00:07:46.295Z,5.34
2022-11-07T00:12:29.243Z,5.33
2022-11-07T00:17:12.203Z,5.16
2022-11-07T00:21:55.123Z,5.15
2022-11-07T00:26:38.067Z,5.19
2022-11-07T00:31:21.031Z,5.2
2022-11-07T00:36:03.976Z,5.23
2022-11-07T00:40:46.917Z,5.22
2022-11-07T00:45:30.347Z,5.32
2022-11-07T00:50:13.283Z,5.46
2022-11-07T00:54:56.224Z,5.53
2022-11-07T00:59:39.163Z,5.58
2022-11-07T01:04:22.136Z,5.62
2022-11-07T01:09:05.069Z,5.65
2022-11-07T01:13:47.990Z,5.71
2022-11-07T01:18:33.610Z,5.69
2022-11-07T01:23:16.753Z,5.68
2022-11-07T01:28:00.370Z,5.67
2022-11-07T01:32:43.354Z,5.62
2022-11-07T01:37:26.293Z,5.58
2022-11-07T01:42:09.239Z,5.53
2022-11-07T01:46:54.562Z,5.6
2022-11-07T01:51:37.467Z,5.61
2022-11-07T01:56:20.361Z,5.6
2022-11-07T02:01:03.379Z,5.54
2022-11-07T02:05:46.769Z,5.58
2022-11-07T02:10:29.680Z,5.66
2022-11-07T02:15:12.599Z,5.7
2022-11-07T02:19:55.522Z,5.67
2022-11-07T02:24:38.423Z,5.71
2022-11-07T02:29:21.338Z,5.73
2022-11-07T02:34:04.340Z,5.7
2022-11-07T02:38:47.308Z,5.72
2022-11-07T02:43:30.258Z,5.69
2022-11-07T02:48:13.223Z,5.71
2022-11-07T02:52:56.293Z,5.74
2022-11-07T02:57:39.201Z,5.71
2022-11-07T03:02:22.267Z,5.74
2022-11-07T03:07:05.709Z,5.79
2022-11-07T03:11:48.609Z,5.81
2022-11-07T03:16:31.545Z,5.86
2022-11-07T03:21:14.456Z,5.9
2022-11-07T03:25:57.375Z,5.94
2022-11-07T03:30:40.305Z,5.96
2022-11-07T03:35:23.280Z,5.99
2022-11-07T03:40:06.212Z,6
2022-11-07T03:44:49.159Z,6.05
2022-11-07T03:49:32.129Z,6.05
2022-11-07T03:54:15.099Z,6.05
2022-11-07T03:58:58.015Z,6.06
2022-11-07T04:03:40.958Z,6.09
2022-11-07T04:08:23.874Z,6.12
2022-11-07T04:13:06.751Z,6.17
2022-11-07T04:17:49.659Z,6.25
2022-11-07T04:22:32.584Z,6.32
2022-11-07T04:27:15.481Z,6.41
2022-11-07T04:31:58.415Z,6.48
2022-11-07T04:36:41.335Z,6.53
2022-11-07T04:41:24.259Z,6.64
2022-11-07T04:46:07.209Z,6.72
2022-11-07T04:50:50.149Z,6.78
2022-11-07T04:55:33.075Z,6.86
2022-11-07T05:00:15.989Z,6.89
2022-11-07T05:04:58.921Z,6.88
2022-11-07T05:09:41.841Z,6.9
2022-11-07T05:14:24.769Z,6.9
2022-11-07T05:19:07.666Z,6.88
2022-11-07T05:23:50.597Z,7
2022-11-07T05:28:39.016Z,7.08
2022-11-07T05:33:22.376Z,7.09
2022-11-07T05:38:05.370Z,7.07
2022-11-07T05:42:48.304Z,7.07
2022-11-07T05:47:31.240Z,7.13
2022-11-07T05:52:14.153Z,7.18
2022-11-07T05:56:57.071Z,7.21
2022-11-07T06:01:40.113Z,7.29
2022-11-07T06:06:23.689Z,7.34
2022-11-07T06:11:06.602Z,7.41
2022-11-07T06:15:49.520Z,7.53
2022-11-07T06:20:32.476Z,7.64
2022-11-07T06:25:15.588Z,7.75
2022-11-07T06:29:59.074Z,7.84
2022-11-07T06:34:42.118Z,7.91
2022-11-07T06:39:25.187Z,7.95
2022-11-07T06:44:08.066Z,7.99
2022-11-07T06:48:51.026Z,8.06
2022-11-07T06:53:33.956Z,8.14
2022-11-07T06:58:16.932Z,8.18
2022-11-07T07:02:59.978Z,8.23
2022-11-07T07:07:43.384Z,8.3
2022-11-07T07:12:26.380Z,8.35
2022-11-07T07:17:09.335Z,8.4
2022-11-07T07:21:52.279Z,8.47
2022-11-07T07:26:38.418Z,8.51
2022-11-07T07:31:21.386Z,8.59
2022-11-07T07:36:04.356Z,8.64
2022-11-07T07:40:47.343Z,8.68
2022-11-07T07:45:30.302Z,8.72
2022-11-07T07:50:13.244Z,8.79
2022-11-07T07:54:56.259Z,8.91
2022-11-07T07:59:39.224Z,8.99
2022-11-07T08:04:22.175Z,9.1
2022-11-07T08:09:05.294Z,9.21
2022-11-07T08:13:48.238Z,9.41
2022-11-07T08:18:31.206Z,9.53
2022-11-07T08:23:16.597Z,9.5
2022-11-07T08:28:01.174Z,9.66
2022-11-07T08:32:44.110Z,9.88
2022-11-07T08:37:27.077Z,9.94
2022-11-07T08:42:10.090Z,10.06
2022-11-07T08:46:53.005Z,10.19
2022-11-07T08:51:35.971Z,10.18
2022-11-07T08:56:18.893Z,10.2
2022-11-07T09:01:01.825Z,10.28
2022-11-07T09:05:44.984Z,10.27
2022-11-07T09:10:27.931Z,10.22
2022-11-07T09:15:13.740Z,10.16
2022-11-07T09:19:56.695Z,10.24
2022-11-07T09:24:39.649Z,10.39
2022-11-07T09:29:22.594Z,10.5
2022-11-07T09:34:05.571Z,10.55
2022-11-07T09:38:48.508Z,10.64
2022-11-07T09:43:32.576Z,11.17
2022-11-07T09:48:15.544Z,11.64
2022-11-07T09:52:58.504Z,11.83
2022-11-07T09:57:41.448Z,12.22
2022-11-07T10:02:24.441Z,12.39
2022-11-07T10:07:07.586Z,12.43
2022-11-07T10:11:50.578Z,12.62
2022-11-07T10:16:33.555Z,12.55
2022-11-07T10:21:36.881Z,12.51
2022-11-07T10:26:21.355Z,12.72
2022-11-07T10:31:04.313Z,13.02
2022-11-07T10:35:47.314Z,13.03
2022-11-07T10:40:30.266Z,12.75
2022-11-07T10:45:13.255Z,12.72
2022-11-07T10:49:56.195Z,12.66
2022-11-07T10:54:39.157Z,12.75
2022-11-07T10:59:22.122Z,13.06
2022-11-07T11:04:05.049Z,13.18
2022-11-07T11:08:48.006Z,13.26
2022-11-07T11:13:30.998Z,13.37
2022-11-07T11:18:14.878Z,13.91
2022-11-07T11:22:59.174Z,13.8
2022-11-07T11:27:42.095Z,13.76
2022-11-07T11:32:25.022Z,13.74
2022-11-07T11:37:08.081Z,13.6
2022-11-07T11:41:51.025Z,13.59
2022-11-07T11:46:33.996Z,13.49
2022-11-07T11:51:16.906Z,13.5
2022-11-07T11:55:59.832Z,13.48
2022-11-07T12:00:42.797Z,13.68
2022-11-07T12:05:25.734Z,13.66
2022-11-07T12:10:08.675Z,13.58
2022-11-07T12:14:56.078Z,13.53
2022-11-07T12:19:40.423Z,13.38
2022-11-07T12:24:23.360Z,13.23
2022-11-07T12:29:06.368Z,13.12
2022-11-07T12:33:49.406Z,13.12
2022-11-07T12:38:32.402Z,13.15
2022-11-07T12:43:15.605Z,13.01
2022-11-07T12:47:59.759Z,12.97
2022-11-07T12:52:42.699Z,12.92
2022-11-07T12:57:25.662Z,12.92
2022-11-07T13:02:08.804Z,13.01
2022-11-07T13:06:52.488Z,12.97
2022-11-07T13:11:35.446Z,12.88
2022-11-07T13:16:18.386Z,12.83
2022-11-07T13:21:01.312Z,12.84
2022-11-07T13:25:44.358Z,12.86
2022-11-07T13:30:27.585Z,12.96
2022-11-07T13:35:10.502Z,12.89
2022-11-07T13:39:53.461Z,12.9
2022-11-07T13:44:36.586Z,12.84
2022-11-07T13:49:19.596Z,12.79
2022-11-07T13:54:02.594Z,12.64
2022-11-07T13:58:46.177Z,12.58
2022-11-07T14:03:29.147Z,12.54
2022-11-07T14:08:12.107Z,12.46
2022-11-07T14:12:55.256Z,12.41
2022-11-07T14:17:38.229Z,12.34
2022-11-07T14:22:21.220Z,12.28
2022-11-07T14:27:04.192Z,12.26
2022-11-07T14:31:47.144Z,12.22
2022-11-07T14:36:30.180Z,12.21
2022-11-07T14:41:13.127Z,12.17
2022-11-07T14:46:11.684Z,12.15
2022-11-07T14:50:56.152Z,12.11
2022-11-07T14:55:39.119Z,12.09
2022-11-07T15:00:22.160Z,12.01
2022-11-07T15:05:10.846Z,11.91
2022-11-07T15:09:54.134Z,11.8
2022-11-07T15:14:37.060Z,11.72
2022-11-07T15:19:20.000Z,11.53
2022-11-07T15:24:02.978Z,11.49
2022-11-07T15:28:57.950Z,11.48
2022-11-07T15:33:40.876Z,11.5
2022-11-07T15:38:23.867Z,11.46
2022-11-07T15:43:07.047Z,11.35
2022-11-07T15:47:50.059Z,11.24
2022-11-07T15:52:33.008Z,11.1
2022-11-07T15:57:16.047Z,11
2022-11-07T16:01:59.857Z,10.9
2022-11-07T16:06:46.049Z,10.85
2022-11-07T16:11:29.341Z,10.8
2022-11-07T16:16:12.348Z,10.76
2022-11-07T16:20:55.391Z,10.74
2022-11-07T16:25:38.451Z,10.73
2022-11-07T16:30:21.457Z,10.69
2022-11-07T16:35:04.475Z,10.67
2022-11-07T16:39:47.495Z,10.63
2022-11-07T16:44:30.537Z,10.61
2022-11-07T16:49:13.785Z,10.58
2022-11-07T16:53:56.744Z,10.5
2022-11-07T16:58:39.706Z,10.44
2022-11-07T17:03:22.707Z,10.35
2022-11-07T17:08:05.676Z,10.27
2022-11-07T17:12:48.658Z,10.24
2022-11-07T17:17:31.736Z,10.18
2022-11-07T17:22:14.802Z,10.14
2022-11-07T17:26:57.814Z,10.06
2022-11-07T17:31:40.905Z,10.01
2022-11-07T17:36:23.922Z,9.94
2022-11-07T17:41:06.983Z,9.88
2022-11-07T17:45:50.108Z,9.81
2022-11-07T17:50:33.244Z,9.75
2022-11-07T17:55:16.301Z,9.73
2022-11-07T17:59:59.311Z,9.72
2022-11-07T18:04:42.345Z,9.65
2022-11-07T18:09:25.339Z,9.59
2022-11-07T18:14:08.292Z,9.57
2022-11-07T18:18:51.327Z,9.5
2022-11-07T18:23:35.419Z,9.49
2022-11-07T18:28:18.728Z,9.39
2022-11-07T18:33:02.265Z,9.31
2022-11-07T18:37:45.223Z,9.27
2022-11-07T18:42:28.200Z,9.23
2022-11-07T18:47:11.192Z,9.18
2022-11-07T18:51:54.235Z,9.17
2022-11-07T18:56:37.233Z,9.14
2022-11-07T19:01:20.328Z,9.14
2022-11-07T19:06:03.527Z,9.12
2022-11-07T19:10:46.474Z,9.11
2022-11-07T19:15:29.463Z,9.1
2022-11-07T19:20:12.538Z,9.13
2022-11-07T19:24:55.731Z,9.13
2022-11-07T19:29:38.868Z,9.17
2022-11-07T19:34:22.089Z,9.16
2022-11-07T19:39:05.131Z,9.15
2022-11-07T19:43:48.226Z,9.16
2022-11-07T19:48:31.402Z,9.18
2022-11-07T19:53:14.654Z,9.2
2022-11-07T19:57:59.167Z,9.2
2022-11-07T20:02:44.898Z,9.2
2022-11-07T20:07:28.568Z,9.19
2022-11-07T20:12:11.611Z,9.18
2022-11-07T20:16:54.602Z,9.18
2022-11-07T20:21:37.619Z,9.15
2022-11-07T20:26:20.679Z,9.12
2022-11-07T20:31:03.798Z,9.08
2022-11-07T20:35:46.951Z,9.09
2022-11-07T20:40:29.943Z,9.08
2022-11-07T20:45:13.226Z,9.04
2022-11-07T20:49:56.377Z,9.01
2022-11-07T20:54:39.430Z,8.97
2022-11-07T20:59:23.192Z,8.96
2022-11-07T21:04:06.170Z,8.93
2022-11-07T21:08:49.286Z,8.9
2022-11-07T21:13:32.325Z,8.86
2022-11-07T21:18:18.312Z,8.84
2022-11-07T21:23:01.393Z,8.88
2022-11-07T21:27:44.351Z,8.9
2022-11-07T21:32:27.510Z,8.87
2022-11-07T21:37:10.491Z,8.85
2022-11-07T21:41:53.633Z,8.84
2022-11-07T21:46:39.807Z,8.85
2022-11-07T21:51:22.960Z,8.8
2022-11-07T21:56:06.112Z,8.79
2022-11-07T22:00:49.289Z,8.8
2022-11-07T22:05:32.509Z,8.79
2022-11-07T22:10:15.526Z,8.76
2022-11-07T22:14:58.639Z,8.74
2022-11-07T22:19:41.767Z,8.76
2022-11-07T22:24:24.932Z,8.75
2022-11-07T22:29:07.867Z,8.75
2022-11-07T22:33:51.069Z,8.78
2022-11-07T22:38:34.069Z,8.92
2022-11-07T22:43:17.383Z,8.94
2022-11-07T22:48:01.293Z,8.91
2022-11-07T22:52:44.464Z,8.92
2022-11-07T22:57:27.440Z,8.93
2022-11-07T23:02:10.467Z,8.91
2022-11-07T23:06:53.968Z,8.89
2022-11-07T23:11:46.189Z,8.87
2022-11-07T23:16:32.653Z,8.85
2022-11-07T23:21:15.929Z,8.79
2022-11-07T23:25:58.804Z,8.75
2022-11-07T23:30:44.809Z,8.71
2022-11-07T23:35:30.196Z,8.7
2022-11-07T23:40:13.176Z,8.68
2022-11-07T23:44:59.329Z,8.73
2022-11-07T23:49:42.288Z,8.73
2022-11-07T23:54:25.367Z,8.76
2022-11-07T23:59:08.341Z,8.73
